sensor_id;sensor_type;location;lat;lon;timestamp;P1;durP1;ratioP1;P2;durP2;ratioP2
76023;SDS011;64719;52.124;6.226;2023-04-08T00:01:41;61.65;;;18.42;;
76023;SDS011;64719;52.124;6.226;2023-04-08T00:04:07;39.65;;;17.65;;
76023;SDS011;64719;52.124;6.226;2023-04-08T00:06:34;69.28;;;18.45;;
76023;SDS011;64719;52.124;6.226;2023-04-08T00:09:01;42.17;;;16.35;;
76023;SDS011;64719;52.124;6.226;2023-04-08T00:11:27;47.55;;;18.33;;
76023;SDS011;64719;52.124;6.226;2023-04-08T00:13:54;48.13;;;17.20;;
76023;SDS011;64719;52.124;6.226;2023-04-08T00:16:22;47.35;;;17.75;;
76023;SDS011;64719;52.124;6.226;2023-04-08T00:18:49;41.30;;;16.70;;
76023;SDS011;64719;52.124;6.226;2023-04-08T00:21:16;36.65;;;16.33;;
76023;SDS011;64719;52.124;6.226;2023-04-08T00:26:14;34.90;;;16.40;;
76023;SDS011;64719;52.124;6.226;2023-04-08T00:28:40;42.05;;;18.27;;
76023;SDS011;64719;52.124;6.226;2023-04-08T00:31:07;34.22;;;17.67;;
76023;SDS011;64719;52.124;6.226;2023-04-08T00:33:35;36.17;;;17.50;;
76023;SDS011;64719;52.124;6.226;2023-04-08T00:36:02;30.50;;;16.45;;
76023;SDS011;64719;52.124;6.226;2023-04-08T00:38:29;34.35;;;15.73;;
76023;SDS011;64719;52.124;6.226;2023-04-08T00:40:55;29.02;;;15.48;;
76023;SDS011;64719;52.124;6.226;2023-04-08T00:43:22;30.73;;;15.13;;
76023;SDS011;64719;52.124;6.226;2023-04-08T00:45:49;30.10;;;15.10;;
76023;SDS011;64719;52.124;6.226;2023-04-08T00:48:15;32.70;;;16.45;;
76023;SDS011;64719;52.124;6.226;2023-04-08T00:50:44;29.30;;;14.48;;
76023;SDS011;64719;52.124;6.226;2023-04-08T00:53:11;27.52;;;14.50;;
76023;SDS011;64719;52.124;6.226;2023-04-08T00:55:39;28.85;;;14.35;;
76023;SDS011;64719;52.124;6.226;2023-04-08T00:58:06;33.42;;;16.13;;
76023;SDS011;64719;52.124;6.226;2023-04-08T01:00:33;34.42;;;16.70;;
76023;SDS011;64719;52.124;6.226;2023-04-08T01:03:04;31.20;;;15.40;;
76023;SDS011;64719;52.124;6.226;2023-04-08T01:05:42;29.27;;;15.98;;
76023;SDS011;64719;52.124;6.226;2023-04-08T01:08:17;32.28;;;16.08;;
76023;SDS011;64719;52.124;6.226;2023-04-08T01:10:44;29.30;;;15.02;;
76023;SDS011;64719;52.124;6.226;2023-04-08T01:13:16;32.50;;;14.77;;
76023;SDS011;64719;52.124;6.226;2023-04-08T01:15:44;31.63;;;15.23;;
76023;SDS011;64719;52.124;6.226;2023-04-08T01:18:12;33.85;;;15.80;;
76023;SDS011;64719;52.124;6.226;2023-04-08T01:20:40;32.63;;;16.05;;
76023;SDS011;64719;52.124;6.226;2023-04-08T01:23:12;32.92;;;16.30;;
76023;SDS011;64719;52.124;6.226;2023-04-08T01:25:45;28.38;;;13.82;;
76023;SDS011;64719;52.124;6.226;2023-04-08T01:28:14;28.98;;;14.57;;
76023;SDS011;64719;52.124;6.226;2023-04-08T01:30:43;33.03;;;15.65;;
76023;SDS011;64719;52.124;6.226;2023-04-08T01:35:39;27.63;;;13.90;;
76023;SDS011;64719;52.124;6.226;2023-04-08T01:38:07;22.55;;;11.50;;
76023;SDS011;64719;52.124;6.226;2023-04-08T01:40:36;22.45;;;11.38;;
76023;SDS011;64719;52.124;6.226;2023-04-08T01:43:06;22.23;;;10.88;;
76023;SDS011;64719;52.124;6.226;2023-04-08T01:45:34;23.17;;;11.88;;
76023;SDS011;64719;52.124;6.226;2023-04-08T01:48:01;24.73;;;12.23;;
76023;SDS011;64719;52.124;6.226;2023-04-08T01:50:32;21.60;;;11.20;;
76023;SDS011;64719;52.124;6.226;2023-04-08T01:52:59;19.67;;;11.57;;
76023;SDS011;64719;52.124;6.226;2023-04-08T01:55:30;21.67;;;11.85;;
76023;SDS011;64719;52.124;6.226;2023-04-08T01:57:58;25.20;;;12.02;;
76023;SDS011;64719;52.124;6.226;2023-04-08T02:00:28;22.52;;;11.13;;
76023;SDS011;64719;52.124;6.226;2023-04-08T02:02:56;24.52;;;11.75;;
76023;SDS011;64719;52.124;6.226;2023-04-08T02:05:23;23.15;;;12.27;;
76023;SDS011;64719;52.124;6.226;2023-04-08T02:07:55;24.95;;;12.00;;
76023;SDS011;64719;52.124;6.226;2023-04-08T02:10:21;28.77;;;13.68;;
76023;SDS011;64719;52.124;6.226;2023-04-08T02:12:48;24.27;;;13.00;;
76023;SDS011;64719;52.124;6.226;2023-04-08T02:15:15;25.75;;;12.82;;
76023;SDS011;64719;52.124;6.226;2023-04-08T02:17:44;34.25;;;16.02;;
76023;SDS011;64719;52.124;6.226;2023-04-08T02:20:15;31.30;;;15.00;;
76023;SDS011;64719;52.124;6.226;2023-04-08T02:22:46;28.52;;;14.68;;
76023;SDS011;64719;52.124;6.226;2023-04-08T02:25:16;49.10;;;20.42;;
76023;SDS011;64719;52.124;6.226;2023-04-08T02:27:46;48.70;;;20.05;;
76023;SDS011;64719;52.124;6.226;2023-04-08T02:30:14;39.10;;;16.92;;
76023;SDS011;64719;52.124;6.226;2023-04-08T02:32:43;48.40;;;19.95;;
76023;SDS011;64719;52.124;6.226;2023-04-08T02:35:12;52.25;;;22.70;;
76023;SDS011;64719;52.124;6.226;2023-04-08T02:37:41;64.35;;;24.15;;
76023;SDS011;64719;52.124;6.226;2023-04-08T02:40:21;69.35;;;25.40;;
76023;SDS011;64719;52.124;6.226;2023-04-08T02:42:48;69.90;;;25.55;;
76023;SDS011;64719;52.124;6.226;2023-04-08T02:45:15;81.50;;;27.48;;
76023;SDS011;64719;52.124;6.226;2023-04-08T02:47:43;77.05;;;27.73;;
76023;SDS011;64719;52.124;6.226;2023-04-08T02:50:10;77.93;;;27.27;;
76023;SDS011;64719;52.124;6.226;2023-04-08T02:52:36;71.40;;;26.83;;
76023;SDS011;64719;52.124;6.226;2023-04-08T02:55:03;73.78;;;26.02;;
76023;SDS011;64719;52.124;6.226;2023-04-08T02:57:33;73.80;;;26.70;;
76023;SDS011;64719;52.124;6.226;2023-04-08T03:00:00;75.32;;;27.45;;
76023;SDS011;64719;52.124;6.226;2023-04-08T03:02:28;76.03;;;26.17;;
76023;SDS011;64719;52.124;6.226;2023-04-08T03:04:55;71.82;;;24.60;;
76023;SDS011;64719;52.124;6.226;2023-04-08T03:07:25;60.97;;;23.20;;
76023;SDS011;64719;52.124;6.226;2023-04-08T03:09:52;55.97;;;21.55;;
76023;SDS011;64719;52.124;6.226;2023-04-08T03:12:20;52.85;;;21.17;;
76023;SDS011;64719;52.124;6.226;2023-04-08T03:14:46;58.95;;;23.35;;
76023;SDS011;64719;52.124;6.226;2023-04-08T03:17:13;61.50;;;22.63;;
76023;SDS011;64719;52.124;6.226;2023-04-08T03:19:39;62.72;;;25.15;;
76023;SDS011;64719;52.124;6.226;2023-04-08T03:22:07;66.25;;;25.48;;
76023;SDS011;64719;52.124;6.226;2023-04-08T03:24:34;58.92;;;25.13;;
76023;SDS011;64719;52.124;6.226;2023-04-08T03:27:01;67.38;;;25.65;;
76023;SDS011;64719;52.124;6.226;2023-04-08T03:29:28;74.22;;;26.88;;
76023;SDS011;64719;52.124;6.226;2023-04-08T03:31:54;73.40;;;27.40;;
76023;SDS011;64719;52.124;6.226;2023-04-08T03:34:21;72.47;;;27.67;;
76023;SDS011;64719;52.124;6.226;2023-04-08T03:36:47;72.00;;;26.85;;
76023;SDS011;64719;52.124;6.226;2023-04-08T03:39:15;71.88;;;26.63;;
76023;SDS011;64719;52.124;6.226;2023-04-08T03:41:42;64.45;;;26.15;;
76023;SDS011;64719;52.124;6.226;2023-04-08T03:44:08;68.60;;;25.40;;
76023;SDS011;64719;52.124;6.226;2023-04-08T03:46:35;74.45;;;25.35;;
76023;SDS011;64719;52.124;6.226;2023-04-08T03:49:01;64.28;;;24.73;;
76023;SDS011;64719;52.124;6.226;2023-04-08T03:51:28;63.08;;;26.40;;
76023;SDS011;64719;52.124;6.226;2023-04-08T03:53:54;64.68;;;24.55;;
76023;SDS011;64719;52.124;6.226;2023-04-08T03:56:22;71.82;;;25.77;;
76023;SDS011;64719;52.124;6.226;2023-04-08T03:58:50;72.18;;;26.60;;
76023;SDS011;64719;52.124;6.226;2023-04-08T04:01:16;67.05;;;23.60;;
76023;SDS011;64719;52.124;6.226;2023-04-08T04:03:43;55.00;;;23.17;;
76023;SDS011;64719;52.124;6.226;2023-04-08T04:06:09;68.97;;;23.27;;
76023;SDS011;64719;52.124;6.226;2023-04-08T04:08:42;59.17;;;21.02;;
76023;SDS011;64719;52.124;6.226;2023-04-08T04:11:08;61.10;;;23.25;;
76023;SDS011;64719;52.124;6.226;2023-04-08T04:13:36;59.70;;;22.23;;
76023;SDS011;64719;52.124;6.226;2023-04-08T04:16:04;59.63;;;22.35;;
76023;SDS011;64719;52.124;6.226;2023-04-08T04:18:31;50.90;;;19.90;;
76023;SDS011;64719;52.124;6.226;2023-04-08T04:20:57;51.28;;;20.13;;
76023;SDS011;64719;52.124;6.226;2023-04-08T04:23:24;47.90;;;19.30;;
76023;SDS011;64719;52.124;6.226;2023-04-08T04:25:50;48.90;;;19.00;;
76023;SDS011;64719;52.124;6.226;2023-04-08T04:28:17;44.42;;;18.25;;
76023;SDS011;64719;52.124;6.226;2023-04-08T04:30:45;43.63;;;17.80;;
76023;SDS011;64719;52.124;6.226;2023-04-08T04:33:11;36.97;;;16.30;;
76023;SDS011;64719;52.124;6.226;2023-04-08T04:35:38;33.47;;;15.73;;
76023;SDS011;64719;52.124;6.226;2023-04-08T04:38:05;36.20;;;16.60;;
76023;SDS011;64719;52.124;6.226;2023-04-08T04:40:34;36.60;;;15.25;;
76023;SDS011;64719;52.124;6.226;2023-04-08T04:43:01;34.72;;;16.23;;
76023;SDS011;64719;52.124;6.226;2023-04-08T04:45:28;34.95;;;15.02;;
76023;SDS011;64719;52.124;6.226;2023-04-08T04:47:55;35.30;;;14.88;;
76023;SDS011;64719;52.124;6.226;2023-04-08T04:50:22;35.55;;;14.88;;
76023;SDS011;64719;52.124;6.226;2023-04-08T04:52:48;36.70;;;15.50;;
76023;SDS011;64719;52.124;6.226;2023-04-08T04:55:15;35.10;;;15.35;;
76023;SDS011;64719;52.124;6.226;2023-04-08T04:57:41;30.55;;;13.80;;
76023;SDS011;64719;52.124;6.226;2023-04-08T05:00:09;31.85;;;14.85;;
76023;SDS011;64719;52.124;6.226;2023-04-08T05:02:36;30.05;;;14.88;;
76023;SDS011;64719;52.124;6.226;2023-04-08T05:05:04;32.67;;;14.13;;
76023;SDS011;64719;52.124;6.226;2023-04-08T05:07:31;30.27;;;14.15;;
76023;SDS011;64719;52.124;6.226;2023-04-08T05:10:01;33.38;;;14.18;;
76023;SDS011;64719;52.124;6.226;2023-04-08T05:12:28;34.20;;;14.20;;
76023;SDS011;64719;52.124;6.226;2023-04-08T05:14:56;31.48;;;14.00;;
76023;SDS011;64719;52.124;6.226;2023-04-08T05:17:23;29.88;;;14.35;;
76023;SDS011;64719;52.124;6.226;2023-04-08T05:19:50;31.55;;;12.68;;
76023;SDS011;64719;52.124;6.226;2023-04-08T05:22:18;28.42;;;13.38;;
76023;SDS011;64719;52.124;6.226;2023-04-08T05:24:45;26.15;;;12.43;;
76023;SDS011;64719;52.124;6.226;2023-04-08T05:27:11;26.77;;;12.95;;
76023;SDS011;64719;52.124;6.226;2023-04-08T05:29:38;25.00;;;13.25;;
76023;SDS011;64719;52.124;6.226;2023-04-08T05:32:05;25.60;;;12.70;;
76023;SDS011;64719;52.124;6.226;2023-04-08T05:34:32;22.23;;;11.38;;
76023;SDS011;64719;52.124;6.226;2023-04-08T05:36:58;22.90;;;11.15;;
76023;SDS011;64719;52.124;6.226;2023-04-08T05:39:26;25.45;;;12.25;;
76023;SDS011;64719;52.124;6.226;2023-04-08T05:41:53;23.10;;;10.73;;
76023;SDS011;64719;52.124;6.226;2023-04-08T05:44:19;22.75;;;11.20;;
76023;SDS011;64719;52.124;6.226;2023-04-08T05:46:46;23.88;;;11.25;;
76023;SDS011;64719;52.124;6.226;2023-04-08T05:49:14;20.30;;;9.95;;
76023;SDS011;64719;52.124;6.226;2023-04-08T05:51:44;21.02;;;10.40;;
76023;SDS011;64719;52.124;6.226;2023-04-08T05:54:10;19.42;;;10.40;;
76023;SDS011;64719;52.124;6.226;2023-04-08T05:56:38;22.08;;;11.20;;
76023;SDS011;64719;52.124;6.226;2023-04-08T05:59:05;19.13;;;10.88;;
76023;SDS011;64719;52.124;6.226;2023-04-08T06:01:31;22.40;;;11.23;;
76023;SDS011;64719;52.124;6.226;2023-04-08T06:03:58;21.52;;;10.50;;
76023;SDS011;64719;52.124;6.226;2023-04-08T06:06:29;21.15;;;10.48;;
76023;SDS011;64719;52.124;6.226;2023-04-08T06:08:56;20.42;;;10.00;;
76023;SDS011;64719;52.124;6.226;2023-04-08T06:11:23;21.45;;;11.38;;
76023;SDS011;64719;52.124;6.226;2023-04-08T06:13:51;19.50;;;10.73;;
76023;SDS011;64719;52.124;6.226;2023-04-08T06:16:17;23.05;;;9.98;;
76023;SDS011;64719;52.124;6.226;2023-04-08T06:18:44;21.75;;;11.05;;
76023;SDS011;64719;52.124;6.226;2023-04-08T06:21:11;20.63;;;10.65;;
76023;SDS011;64719;52.124;6.226;2023-04-08T06:23:37;19.80;;;10.10;;
76023;SDS011;64719;52.124;6.226;2023-04-08T06:26:04;19.83;;;11.18;;
76023;SDS011;64719;52.124;6.226;2023-04-08T06:28:31;20.30;;;10.93;;
76023;SDS011;64719;52.124;6.226;2023-04-08T06:30:59;26.35;;;12.43;;
76023;SDS011;64719;52.124;6.226;2023-04-08T06:33:25;24.45;;;12.48;;
76023;SDS011;64719;52.124;6.226;2023-04-08T06:36:00;21.17;;;12.23;;
76023;SDS011;64719;52.124;6.226;2023-04-08T06:38:27;19.50;;;10.63;;
76023;SDS011;64719;52.124;6.226;2023-04-08T06:40:54;19.25;;;10.65;;
76023;SDS011;64719;52.124;6.226;2023-04-08T06:43:21;17.88;;;10.23;;
76023;SDS011;64719;52.124;6.226;2023-04-08T06:45:48;17.85;;;9.75;;
76023;SDS011;64719;52.124;6.226;2023-04-08T06:48:16;17.48;;;9.48;;
76023;SDS011;64719;52.124;6.226;2023-04-08T06:50:44;15.82;;;10.10;;
76023;SDS011;64719;52.124;6.226;2023-04-08T06:53:10;16.70;;;9.02;;
76023;SDS011;64719;52.124;6.226;2023-04-08T06:55:37;15.98;;;9.63;;
76023;SDS011;64719;52.124;6.226;2023-04-08T06:58:03;18.15;;;9.93;;
76023;SDS011;64719;52.124;6.226;2023-04-08T07:00:30;16.42;;;9.35;;
76023;SDS011;64719;52.124;6.226;2023-04-08T07:02:57;16.83;;;9.50;;
76023;SDS011;64719;52.124;6.226;2023-04-08T07:05:31;14.32;;;8.18;;
76023;SDS011;64719;52.124;6.226;2023-04-08T07:08:00;15.90;;;9.20;;
76023;SDS011;64719;52.124;6.226;2023-04-08T07:10:30;12.43;;;7.95;;
76023;SDS011;64719;52.124;6.226;2023-04-08T07:12:56;15.60;;;9.23;;
76023;SDS011;64719;52.124;6.226;2023-04-08T07:15:26;13.00;;;8.07;;
76023;SDS011;64719;52.124;6.226;2023-04-08T07:18:00;13.15;;;7.82;;
76023;SDS011;64719;52.124;6.226;2023-04-08T07:20:29;11.32;;;7.18;;
76023;SDS011;64719;52.124;6.226;2023-04-08T07:23:00;12.88;;;8.05;;
76023;SDS011;64719;52.124;6.226;2023-04-08T07:25:31;14.63;;;8.88;;
76023;SDS011;64719;52.124;6.226;2023-04-08T07:27:58;12.07;;;7.53;;
76023;SDS011;64719;52.124;6.226;2023-04-08T07:30:26;11.52;;;7.35;;
76023;SDS011;64719;52.124;6.226;2023-04-08T07:32:52;14.07;;;7.70;;
76023;SDS011;64719;52.124;6.226;2023-04-08T07:35:19;10.45;;;6.82;;
76023;SDS011;64719;52.124;6.226;2023-04-08T07:37:49;13.85;;;8.20;;
76023;SDS011;64719;52.124;6.226;2023-04-08T07:40:17;11.43;;;7.22;;
76023;SDS011;64719;52.124;6.226;2023-04-08T07:42:43;12.27;;;7.28;;
76023;SDS011;64719;52.124;6.226;2023-04-08T07:45:10;12.27;;;7.20;;
76023;SDS011;64719;52.124;6.226;2023-04-08T07:47:37;10.52;;;6.75;;
76023;SDS011;64719;52.124;6.226;2023-04-08T07:50:04;12.57;;;7.72;;
76023;SDS011;64719;52.124;6.226;2023-04-08T07:52:31;10.13;;;7.00;;
76023;SDS011;64719;52.124;6.226;2023-04-08T07:54:59;10.93;;;6.15;;
76023;SDS011;64719;52.124;6.226;2023-04-08T07:57:28;8.52;;;5.97;;
76023;SDS011;64719;52.124;6.226;2023-04-08T07:59:55;10.05;;;7.10;;
76023;SDS011;64719;52.124;6.226;2023-04-08T08:02:21;11.02;;;7.32;;
76023;SDS011;64719;52.124;6.226;2023-04-08T08:04:48;7.57;;;6.10;;
76023;SDS011;64719;52.124;6.226;2023-04-08T08:07:15;8.65;;;6.57;;
76023;SDS011;64719;52.124;6.226;2023-04-08T08:09:41;9.23;;;6.68;;
76023;SDS011;64719;52.124;6.226;2023-04-08T08:12:09;9.65;;;6.82;;
76023;SDS011;64719;52.124;6.226;2023-04-08T08:14:35;8.70;;;7.05;;
76023;SDS011;64719;52.124;6.226;2023-04-08T08:17:03;8.05;;;6.30;;
76023;SDS011;64719;52.124;6.226;2023-04-08T08:19:29;7.65;;;6.03;;
76023;SDS011;64719;52.124;6.226;2023-04-08T08:21:57;8.07;;;6.75;;
76023;SDS011;64719;52.124;6.226;2023-04-08T08:24:24;6.88;;;5.63;;
76023;SDS011;64719;52.124;6.226;2023-04-08T08:26:51;8.18;;;6.03;;
76023;SDS011;64719;52.124;6.226;2023-04-08T08:29:19;6.93;;;5.90;;
76023;SDS011;64719;52.124;6.226;2023-04-08T08:31:45;6.70;;;6.00;;
76023;SDS011;64719;52.124;6.226;2023-04-08T08:34:12;7.30;;;5.82;;
76023;SDS011;64719;52.124;6.226;2023-04-08T08:36:39;7.15;;;5.65;;
76023;SDS011;64719;52.124;6.226;2023-04-08T08:39:05;5.85;;;5.25;;
76023;SDS011;64719;52.124;6.226;2023-04-08T08:41:32;6.10;;;5.50;;
76023;SDS011;64719;52.124;6.226;2023-04-08T08:44:01;7.03;;;6.10;;
76023;SDS011;64719;52.124;6.226;2023-04-08T08:46:29;6.25;;;5.55;;
76023;SDS011;64719;52.124;6.226;2023-04-08T08:48:55;5.82;;;5.30;;
76023;SDS011;64719;52.124;6.226;2023-04-08T08:51:22;6.40;;;5.57;;
76023;SDS011;64719;52.124;6.226;2023-04-08T08:54:02;8.50;;;6.40;;
76023;SDS011;64719;52.124;6.226;2023-04-08T08:56:29;7.25;;;5.47;;
76023;SDS011;64719;52.124;6.226;2023-04-08T08:58:55;7.50;;;5.25;;
76023;SDS011;64719;52.124;6.226;2023-04-08T09:01:34;6.63;;;5.63;;
76023;SDS011;64719;52.124;6.226;2023-04-08T09:04:05;7.78;;;5.80;;
76023;SDS011;64719;52.124;6.226;2023-04-08T09:06:33;8.20;;;5.70;;
76023;SDS011;64719;52.124;6.226;2023-04-08T09:08:59;7.72;;;6.20;;
76023;SDS011;64719;52.124;6.226;2023-04-08T09:11:28;7.97;;;6.20;;
76023;SDS011;64719;52.124;6.226;2023-04-08T09:14:02;6.85;;;6.15;;
76023;SDS011;64719;52.124;6.226;2023-04-08T09:19:08;7.00;;;5.88;;
76023;SDS011;64719;52.124;6.226;2023-04-08T09:21:35;6.93;;;6.20;;
76023;SDS011;64719;52.124;6.226;2023-04-08T09:24:03;6.60;;;5.93;;
76023;SDS011;64719;52.124;6.226;2023-04-08T09:26:29;7.97;;;6.30;;
76023;SDS011;64719;52.124;6.226;2023-04-08T09:29:03;6.28;;;5.68;;
76023;SDS011;64719;52.124;6.226;2023-04-08T09:31:31;6.85;;;6.15;;
76023;SDS011;64719;52.124;6.226;2023-04-08T09:34:00;7.05;;;6.35;;
76023;SDS011;64719;52.124;6.226;2023-04-08T09:36:44;7.32;;;6.00;;
76023;SDS011;64719;52.124;6.226;2023-04-08T09:39:11;7.00;;;6.07;;
76023;SDS011;64719;52.124;6.226;2023-04-08T09:41:37;6.65;;;5.88;;
76023;SDS011;64719;52.124;6.226;2023-04-08T09:44:05;8.50;;;6.40;;
76023;SDS011;64719;52.124;6.226;2023-04-08T09:46:35;9.25;;;6.10;;
76023;SDS011;64719;52.124;6.226;2023-04-08T09:49:06;8.77;;;6.63;;
76023;SDS011;64719;52.124;6.226;2023-04-08T09:51:39;8.00;;;6.57;;
76023;SDS011;64719;52.124;6.226;2023-04-08T09:54:11;7.75;;;6.30;;
76023;SDS011;64719;52.124;6.226;2023-04-08T09:56:40;8.48;;;6.47;;
76023;SDS011;64719;52.124;6.226;2023-04-08T09:59:13;7.00;;;6.28;;
76023;SDS011;64719;52.124;6.226;2023-04-08T10:01:43;8.38;;;5.93;;
76023;SDS011;64719;52.124;6.226;2023-04-08T10:04:14;6.57;;;5.10;;
76023;SDS011;64719;52.124;6.226;2023-04-08T10:06:44;6.50;;;5.43;;
76023;SDS011;64719;52.124;6.226;2023-04-08T10:09:18;6.20;;;5.20;;
76023;SDS011;64719;52.124;6.226;2023-04-08T10:11:45;7.85;;;6.00;;
76023;SDS011;64719;52.124;6.226;2023-04-08T10:14:12;7.28;;;5.60;;
76023;SDS011;64719;52.124;6.226;2023-04-08T10:16:39;7.72;;;5.80;;
76023;SDS011;64719;52.124;6.226;2023-04-08T10:19:34;8.80;;;5.88;;
76023;SDS011;64719;52.124;6.226;2023-04-08T10:22:02;8.25;;;5.68;;
76023;SDS011;64719;52.124;6.226;2023-04-08T10:24:29;10.18;;;5.85;;
76023;SDS011;64719;52.124;6.226;2023-04-08T10:26:55;6.97;;;5.60;;
76023;SDS011;64719;52.124;6.226;2023-04-08T10:32:06;6.85;;;5.55;;
76023;SDS011;64719;52.124;6.226;2023-04-08T10:34:34;8.05;;;5.93;;
76023;SDS011;64719;52.124;6.226;2023-04-08T10:37:17;7.63;;;5.60;;
76023;SDS011;64719;52.124;6.226;2023-04-08T10:39:47;8.00;;;5.97;;
76023;SDS011;64719;52.124;6.226;2023-04-08T10:42:15;6.75;;;5.53;;
76023;SDS011;64719;52.124;6.226;2023-04-08T10:44:43;6.75;;;5.45;;
76023;SDS011;64719;52.124;6.226;2023-04-08T10:47:10;6.50;;;5.65;;
76023;SDS011;64719;52.124;6.226;2023-04-08T10:49:38;7.70;;;5.50;;
76023;SDS011;64719;52.124;6.226;2023-04-08T10:52:06;7.75;;;5.60;;
76023;SDS011;64719;52.124;6.226;2023-04-08T10:54:33;6.55;;;5.68;;
76023;SDS011;64719;52.124;6.226;2023-04-08T10:57:03;7.47;;;5.32;;
76023;SDS011;64719;52.124;6.226;2023-04-08T10:59:34;7.93;;;5.55;;
76023;SDS011;64719;52.124;6.226;2023-04-08T11:02:00;8.20;;;5.75;;
76023;SDS011;64719;52.124;6.226;2023-04-08T11:04:31;5.88;;;5.28;;
76023;SDS011;64719;52.124;6.226;2023-04-08T11:07:05;8.15;;;5.97;;
76023;SDS011;64719;52.124;6.226;2023-04-08T11:09:34;8.38;;;6.13;;
76023;SDS011;64719;52.124;6.226;2023-04-08T11:12:00;9.95;;;5.90;;
76023;SDS011;64719;52.124;6.226;2023-04-08T11:14:27;9.65;;;6.22;;
76023;SDS011;64719;52.124;6.226;2023-04-08T11:16:54;8.68;;;6.10;;
76023;SDS011;64719;52.124;6.226;2023-04-08T11:19:20;9.68;;;6.70;;
76023;SDS011;64719;52.124;6.226;2023-04-08T11:21:47;8.52;;;5.88;;
76023;SDS011;64719;52.124;6.226;2023-04-08T11:24:17;8.98;;;6.00;;
76023;SDS011;64719;52.124;6.226;2023-04-08T11:26:46;9.27;;;5.93;;
76023;SDS011;64719;52.124;6.226;2023-04-08T11:29:12;8.40;;;6.63;;
76023;SDS011;64719;52.124;6.226;2023-04-08T11:31:40;8.35;;;6.50;;
76023;SDS011;64719;52.124;6.226;2023-04-08T11:34:07;9.00;;;6.45;;
76023;SDS011;64719;52.124;6.226;2023-04-08T11:36:34;11.50;;;7.53;;
76023;SDS011;64719;52.124;6.226;2023-04-08T11:39:05;8.63;;;6.82;;
76023;SDS011;64719;52.124;6.226;2023-04-08T11:41:36;8.55;;;6.70;;
76023;SDS011;64719;52.124;6.226;2023-04-08T11:44:04;9.80;;;7.07;;
76023;SDS011;64719;52.124;6.226;2023-04-08T11:46:31;9.25;;;6.72;;
76023;SDS011;64719;52.124;6.226;2023-04-08T11:48:59;10.18;;;7.90;;
76023;SDS011;64719;52.124;6.226;2023-04-08T11:51:27;11.02;;;7.32;;
76023;SDS011;64719;52.124;6.226;2023-04-08T11:53:53;11.02;;;7.63;;
76023;SDS011;64719;52.124;6.226;2023-04-08T11:56:20;9.82;;;7.47;;
76023;SDS011;64719;52.124;6.226;2023-04-08T11:58:49;10.57;;;8.15;;
76023;SDS011;64719;52.124;6.226;2023-04-08T12:01:17;10.13;;;7.82;;
76023;SDS011;64719;52.124;6.226;2023-04-08T12:03:54;11.25;;;8.35;;
76023;SDS011;64719;52.124;6.226;2023-04-08T12:06:24;11.85;;;8.95;;
76023;SDS011;64719;52.124;6.226;2023-04-08T12:08:51;11.82;;;9.10;;
76023;SDS011;64719;52.124;6.226;2023-04-08T12:11:19;12.68;;;9.07;;
76023;SDS011;64719;52.124;6.226;2023-04-08T12:13:45;12.55;;;8.93;;
76023;SDS011;64719;52.124;6.226;2023-04-08T12:16:14;13.75;;;8.45;;
76023;SDS011;64719;52.124;6.226;2023-04-08T12:18:41;11.25;;;9.00;;
76023;SDS011;64719;52.124;6.226;2023-04-08T12:21:08;11.52;;;8.70;;
76023;SDS011;64719;52.124;6.226;2023-04-08T12:23:34;12.25;;;8.65;;
76023;SDS011;64719;52.124;6.226;2023-04-08T12:26:01;11.60;;;8.75;;
76023;SDS011;64719;52.124;6.226;2023-04-08T12:28:28;13.52;;;8.95;;
76023;SDS011;64719;52.124;6.226;2023-04-08T12:30:55;12.40;;;8.45;;
76023;SDS011;64719;52.124;6.226;2023-04-08T12:33:23;12.90;;;9.32;;
76023;SDS011;64719;52.124;6.226;2023-04-08T12:35:49;13.07;;;10.32;;
76023;SDS011;64719;52.124;6.226;2023-04-08T12:38:16;14.40;;;10.23;;
76023;SDS011;64719;52.124;6.226;2023-04-08T12:40:42;13.38;;;10.02;;
76023;SDS011;64719;52.124;6.226;2023-04-08T12:43:09;15.50;;;10.73;;
76023;SDS011;64719;52.124;6.226;2023-04-08T12:45:35;16.15;;;11.07;;
76023;SDS011;64719;52.124;6.226;2023-04-08T12:48:02;13.80;;;10.45;;
76023;SDS011;64719;52.124;6.226;2023-04-08T12:50:30;16.20;;;11.18;;
76023;SDS011;64719;52.124;6.226;2023-04-08T12:52:56;16.60;;;11.38;;
76023;SDS011;64719;52.124;6.226;2023-04-08T12:55:23;15.43;;;10.95;;
76023;SDS011;64719;52.124;6.226;2023-04-08T12:57:50;16.52;;;12.43;;
76023;SDS011;64719;52.124;6.226;2023-04-08T13:00:16;17.42;;;12.68;;
76023;SDS011;64719;52.124;6.226;2023-04-08T13:02:47;18.02;;;11.55;;
76023;SDS011;64719;52.124;6.226;2023-04-08T13:05:14;17.98;;;11.23;;
76023;SDS011;64719;52.124;6.226;2023-04-08T13:07:51;21.80;;;12.43;;
76023;SDS011;64719;52.124;6.226;2023-04-08T13:10:18;18.38;;;12.25;;
76023;SDS011;64719;52.124;6.226;2023-04-08T13:12:50;17.30;;;11.90;;
76023;SDS011;64719;52.124;6.226;2023-04-08T13:15:20;20.33;;;12.45;;
76023;SDS011;64719;52.124;6.226;2023-04-08T13:17:46;19.00;;;12.45;;
76023;SDS011;64719;52.124;6.226;2023-04-08T13:20:13;19.08;;;12.82;;
76023;SDS011;64719;52.124;6.226;2023-04-08T13:22:39;18.65;;;12.30;;
76023;SDS011;64719;52.124;6.226;2023-04-08T13:25:09;18.63;;;12.48;;
76023;SDS011;64719;52.124;6.226;2023-04-08T13:27:36;19.17;;;12.57;;
76023;SDS011;64719;52.124;6.226;2023-04-08T13:30:03;20.20;;;13.25;;
76023;SDS011;64719;52.124;6.226;2023-04-08T13:32:36;20.20;;;12.90;;
76023;SDS011;64719;52.124;6.226;2023-04-08T13:35:04;18.45;;;12.98;;
76023;SDS011;64719;52.124;6.226;2023-04-08T13:37:31;19.70;;;13.10;;
76023;SDS011;64719;52.124;6.226;2023-04-08T13:40:06;22.90;;;13.90;;
76023;SDS011;64719;52.124;6.226;2023-04-08T13:42:37;21.98;;;14.07;;
76023;SDS011;64719;52.124;6.226;2023-04-08T13:45:04;21.27;;;12.73;;
76023;SDS011;64719;52.124;6.226;2023-04-08T13:47:37;19.65;;;12.98;;
76023;SDS011;64719;52.124;6.226;2023-04-08T13:50:05;21.60;;;13.45;;
76023;SDS011;64719;52.124;6.226;2023-04-08T13:52:36;20.27;;;12.65;;
76023;SDS011;64719;52.124;6.226;2023-04-08T13:55:04;19.90;;;12.82;;
76023;SDS011;64719;52.124;6.226;2023-04-08T13:57:31;18.83;;;12.70;;
76023;SDS011;64719;52.124;6.226;2023-04-08T13:59:59;20.08;;;13.48;;
76023;SDS011;64719;52.124;6.226;2023-04-08T14:04:52;23.48;;;15.48;;
76023;SDS011;64719;52.124;6.226;2023-04-08T14:07:19;20.63;;;14.25;;
76023;SDS011;64719;52.124;6.226;2023-04-08T14:09:45;18.83;;;13.30;;
76023;SDS011;64719;52.124;6.226;2023-04-08T14:12:12;20.67;;;13.88;;
76023;SDS011;64719;52.124;6.226;2023-04-08T14:14:38;16.42;;;12.13;;
76023;SDS011;64719;52.124;6.226;2023-04-08T14:17:06;15.95;;;12.30;;
76023;SDS011;64719;52.124;6.226;2023-04-08T14:19:32;16.88;;;12.13;;
76023;SDS011;64719;52.124;6.226;2023-04-08T14:21:59;15.48;;;11.73;;
76023;SDS011;64719;52.124;6.226;2023-04-08T14:24:26;15.77;;;11.30;;
76023;SDS011;64719;52.124;6.226;2023-04-08T14:26:52;14.77;;;11.23;;
76023;SDS011;64719;52.124;6.226;2023-04-08T14:29:19;15.00;;;10.65;;
76023;SDS011;64719;52.124;6.226;2023-04-08T14:31:46;14.77;;;11.07;;
76023;SDS011;64719;52.124;6.226;2023-04-08T14:34:14;15.77;;;11.27;;
76023;SDS011;64719;52.124;6.226;2023-04-08T14:44:03;14.70;;;10.43;;
76023;SDS011;64719;52.124;6.226;2023-04-08T14:46:30;17.08;;;11.05;;
76023;SDS011;64719;52.124;6.226;2023-04-08T14:48:59;14.70;;;10.65;;
76023;SDS011;64719;52.124;6.226;2023-04-08T14:51:37;15.20;;;10.65;;
76023;SDS011;64719;52.124;6.226;2023-04-08T14:54:04;16.13;;;10.70;;
76023;SDS011;64719;52.124;6.226;2023-04-08T14:56:31;14.68;;;10.20;;